Shady Shores, Texas
Current Conditions -  °F | °C
As of 11:53 PM on Wednesday 28 Jan 2015 (Local Time) from KDTO Reporting Station
Clear Clear  
Wind Chill: 63°   Ceiling: Unl
Heat Index: 63°   Visibility: 10mi
Dew Point: 40°   Wind: 12mph
Humidity: 43%   Direction: 200°SSW
Pressure: 30.03"   Gusts: NA
Location:  33.1922°N, 97.124°W
Report Text: KDTO 290553Z AUTO 20010KT 10SM CLR 17/04 A3003 RMK AO2 SLP164 T01720044 10233 20150 402720044 53018
Loading
Personal Weather Stations






























Interactive Weather Map New forecast layout! Learn more

10-Day Weather Forecast

Advertisements
Track Severe Weather on mobile